sensor_id;sensor_type;location;lat;lon;timestamp;temperature;humidity
25450;DHT22;13371;52.080;5.624;2023-07-29T00:01:08;22.40;96.70
25450;DHT22;13371;52.080;5.624;2023-07-29T00:03:34;22.40;96.60
25450;DHT22;13371;52.080;5.624;2023-07-29T00:05:59;22.30;96.40
25450;DHT22;13371;52.080;5.624;2023-07-29T00:08:25;22.20;96.50
25450;DHT22;13371;52.080;5.624;2023-07-29T00:10:51;22.30;96.40
25450;DHT22;13371;52.080;5.624;2023-07-29T00:13:16;22.30;96.40
25450;DHT22;13371;52.080;5.624;2023-07-29T00:15:42;22.20;96.30
25450;DHT22;13371;52.080;5.624;2023-07-29T00:18:07;22.10;96.60
25450;DHT22;13371;52.080;5.624;2023-07-29T00:20:33;22.20;96.60
25450;DHT22;13371;52.080;5.624;2023-07-29T00:22:58;22.20;96.50
25450;DHT22;13371;52.080;5.624;2023-07-29T00:25:25;22.30;96.40
25450;DHT22;13371;52.080;5.624;2023-07-29T00:27:50;22.30;96.60
25450;DHT22;13371;52.080;5.624;2023-07-29T00:30:16;22.30;96.70
25450;DHT22;13371;52.080;5.624;2023-07-29T00:32:42;22.20;96.70
25450;DHT22;13371;52.080;5.624;2023-07-29T00:35:07;22.10;96.90
25450;DHT22;13371;52.080;5.624;2023-07-29T00:37:33;22.20;96.80
25450;DHT22;13371;52.080;5.624;2023-07-29T00:39:59;22.20;96.80
25450;DHT22;13371;52.080;5.624;2023-07-29T00:42:25;22.10;96.80
25450;DHT22;13371;52.080;5.624;2023-07-29T00:44:50;22.00;96.60
25450;DHT22;13371;52.080;5.624;2023-07-29T00:47:16;22.30;96.60
25450;DHT22;13371;52.080;5.624;2023-07-29T00:49:44;22.20;96.10
25450;DHT22;13371;52.080;5.624;2023-07-29T00:52:10;21.80;96.90
25450;DHT22;13371;52.080;5.624;2023-07-29T00:54:42;21.50;97.50
25450;DHT22;13371;52.080;5.624;2023-07-29T00:57:08;21.70;97.80
25450;DHT22;13371;52.080;5.624;2023-07-29T00:59:35;21.70;97.60
25450;DHT22;13371;52.080;5.624;2023-07-29T01:02:02;21.70;97.60
25450;DHT22;13371;52.080;5.624;2023-07-29T01:04:27;21.70;97.60
25450;DHT22;13371;52.080;5.624;2023-07-29T01:07:17;21.60;97.50
25450;DHT22;13371;52.080;5.624;2023-07-29T01:09:59;21.40;98.10
25450;DHT22;13371;52.080;5.624;2023-07-29T01:12:35;21.30;98.40
25450;DHT22;13371;52.080;5.624;2023-07-29T01:17:33;20.90;99.40
25450;DHT22;13371;52.080;5.624;2023-07-29T01:20:09;21.00;99.10
25450;DHT22;13371;52.080;5.624;2023-07-29T01:22:36;21.10;99.00
25450;DHT22;13371;52.080;5.624;2023-07-29T01:25:02;21.50;98.50
25450;DHT22;13371;52.080;5.624;2023-07-29T01:27:29;21.50;98.30
25450;DHT22;13371;52.080;5.624;2023-07-29T01:29:55;21.70;98.00
25450;DHT22;13371;52.080;5.624;2023-07-29T01:32:53;21.70;97.70
25450;DHT22;13371;52.080;5.624;2023-07-29T01:35:33;21.60;97.80
25450;DHT22;13371;52.080;5.624;2023-07-29T01:38:17;21.50;98.00
25450;DHT22;13371;52.080;5.624;2023-07-29T01:40:44;21.40;98.00
25450;DHT22;13371;52.080;5.624;2023-07-29T01:43:11;21.50;98.30
25450;DHT22;13371;52.080;5.624;2023-07-29T01:45:37;21.50;98.10
25450;DHT22;13371;52.080;5.624;2023-07-29T01:48:07;21.50;98.00
25450;DHT22;13371;52.080;5.624;2023-07-29T01:50:33;21.50;98.00
25450;DHT22;13371;52.080;5.624;2023-07-29T01:52:59;21.40;98.10
25450;DHT22;13371;52.080;5.624;2023-07-29T01:55:25;21.30;98.30
25450;DHT22;13371;52.080;5.624;2023-07-29T01:57:50;21.50;98.00
25450;DHT22;13371;52.080;5.624;2023-07-29T02:00:21;21.50;98.10
25450;DHT22;13371;52.080;5.624;2023-07-29T02:02:46;21.50;98.00
25450;DHT22;13371;52.080;5.624;2023-07-29T02:05:12;21.50;98.00
25450;DHT22;13371;52.080;5.624;2023-07-29T02:07:38;21.60;98.00
25450;DHT22;13371;52.080;5.624;2023-07-29T02:10:03;21.40;98.60
25450;DHT22;13371;52.080;5.624;2023-07-29T02:12:29;21.30;98.20
25450;DHT22;13371;52.080;5.624;2023-07-29T02:14:55;21.40;98.30
25450;DHT22;13371;52.080;5.624;2023-07-29T02:17:20;21.40;98.20
25450;DHT22;13371;52.080;5.624;2023-07-29T02:19:46;21.50;98.20
25450;DHT22;13371;52.080;5.624;2023-07-29T02:22:16;21.50;98.00
25450;DHT22;13371;52.080;5.624;2023-07-29T02:24:42;21.50;98.20
25450;DHT22;13371;52.080;5.624;2023-07-29T02:27:08;21.30;98.40
25450;DHT22;13371;52.080;5.624;2023-07-29T02:29:34;21.30;98.40
25450;DHT22;13371;52.080;5.624;2023-07-29T02:32:00;21.40;98.30
25450;DHT22;13371;52.080;5.624;2023-07-29T02:34:25;21.20;98.80
25450;DHT22;13371;52.080;5.624;2023-07-29T02:36:51;21.20;99.20
25450;DHT22;13371;52.080;5.624;2023-07-29T02:39:16;21.20;99.10
25450;DHT22;13371;52.080;5.624;2023-07-29T02:41:42;21.40;99.10
25450;DHT22;13371;52.080;5.624;2023-07-29T02:44:08;21.40;99.10
25450;DHT22;13371;52.080;5.624;2023-07-29T02:46:33;21.40;99.20
25450;DHT22;13371;52.080;5.624;2023-07-29T02:48:59;21.30;99.20
25450;DHT22;13371;52.080;5.624;2023-07-29T02:51:24;21.10;99.80
25450;DHT22;13371;52.080;5.624;2023-07-29T02:53:50;21.20;99.60
25450;DHT22;13371;52.080;5.624;2023-07-29T02:56:16;21.30;99.90
25450;DHT22;13371;52.080;5.624;2023-07-29T02:58:41;21.50;99.60
25450;DHT22;13371;52.080;5.624;2023-07-29T03:01:07;21.20;99.90
25450;DHT22;13371;52.080;5.624;2023-07-29T03:03:33;21.20;99.90
25450;DHT22;13371;52.080;5.624;2023-07-29T03:06:01;21.20;99.90
25450;DHT22;13371;52.080;5.624;2023-07-29T03:08:27;21.40;99.90
25450;DHT22;13371;52.080;5.624;2023-07-29T03:10:54;21.20;99.90
25450;DHT22;13371;52.080;5.624;2023-07-29T03:13:20;21.10;99.90
25450;DHT22;13371;52.080;5.624;2023-07-29T03:15:46;21.10;99.90
25450;DHT22;13371;52.080;5.624;2023-07-29T03:18:11;21.10;99.90
25450;DHT22;13371;52.080;5.624;2023-07-29T03:20:37;21.20;99.90
25450;DHT22;13371;52.080;5.624;2023-07-29T03:23:02;21.20;99.90
25450;DHT22;13371;52.080;5.624;2023-07-29T03:25:28;21.20;99.90
25450;DHT22;13371;52.080;5.624;2023-07-29T03:27:54;21.30;99.80
25450;DHT22;13371;52.080;5.624;2023-07-29T03:30:21;21.30;99.60
25450;DHT22;13371;52.080;5.624;2023-07-29T03:32:47;21.20;99.50
25450;DHT22;13371;52.080;5.624;2023-07-29T03:35:13;21.20;99.40
25450;DHT22;13371;52.080;5.624;2023-07-29T03:37:39;21.20;99.60
25450;DHT22;13371;52.080;5.624;2023-07-29T03:40:05;21.30;99.30
25450;DHT22;13371;52.080;5.624;2023-07-29T03:42:31;21.40;99.40
25450;DHT22;13371;52.080;5.624;2023-07-29T03:44:56;21.30;99.30
25450;DHT22;13371;52.080;5.624;2023-07-29T03:47:22;21.00;99.90
25450;DHT22;13371;52.080;5.624;2023-07-29T03:49:48;21.10;99.80
25450;DHT22;13371;52.080;5.624;2023-07-29T03:52:13;21.20;99.60
25450;DHT22;13371;52.080;5.624;2023-07-29T03:54:39;21.20;99.30
25450;DHT22;13371;52.080;5.624;2023-07-29T03:57:05;21.20;99.30
25450;DHT22;13371;52.080;5.624;2023-07-29T03:59:30;21.30;99.30
25450;DHT22;13371;52.080;5.624;2023-07-29T04:01:56;21.30;99.30
25450;DHT22;13371;52.080;5.624;2023-07-29T04:04:22;21.20;99.50
25450;DHT22;13371;52.080;5.624;2023-07-29T04:06:47;21.10;99.30
25450;DHT22;13371;52.080;5.624;2023-07-29T04:09:13;20.90;99.60
25450;DHT22;13371;52.080;5.624;2023-07-29T04:11:38;20.80;99.90
25450;DHT22;13371;52.080;5.624;2023-07-29T04:14:04;20.60;99.90
25450;DHT22;13371;52.080;5.624;2023-07-29T04:16:30;20.70;99.90
25450;DHT22;13371;52.080;5.624;2023-07-29T04:18:56;20.80;99.90
25450;DHT22;13371;52.080;5.624;2023-07-29T04:21:21;20.70;99.90
25450;DHT22;13371;52.080;5.624;2023-07-29T04:23:47;20.70;99.90
25450;DHT22;13371;52.080;5.624;2023-07-29T04:26:12;20.70;99.90
25450;DHT22;13371;52.080;5.624;2023-07-29T04:28:38;20.50;99.90
25450;DHT22;13371;52.080;5.624;2023-07-29T04:31:03;20.50;99.90
25450;DHT22;13371;52.080;5.624;2023-07-29T04:33:30;20.40;99.90
25450;DHT22;13371;52.080;5.624;2023-07-29T04:35:56;20.60;99.90
25450;DHT22;13371;52.080;5.624;2023-07-29T04:38:22;20.60;99.80
25450;DHT22;13371;52.080;5.624;2023-07-29T04:40:49;20.50;99.80
25450;DHT22;13371;52.080;5.624;2023-07-29T04:43:14;20.80;99.70
25450;DHT22;13371;52.080;5.624;2023-07-29T04:45:43;20.70;99.60
25450;DHT22;13371;52.080;5.624;2023-07-29T04:48:09;20.60;99.50
25450;DHT22;13371;52.080;5.624;2023-07-29T04:50:35;20.50;99.70
25450;DHT22;13371;52.080;5.624;2023-07-29T04:53:00;20.60;99.50
25450;DHT22;13371;52.080;5.624;2023-07-29T04:55:26;20.40;99.50
25450;DHT22;13371;52.080;5.624;2023-07-29T04:57:51;20.20;99.90
25450;DHT22;13371;52.080;5.624;2023-07-29T05:00:17;20.20;99.90
25450;DHT22;13371;52.080;5.624;2023-07-29T05:02:43;20.10;99.90
25450;DHT22;13371;52.080;5.624;2023-07-29T05:05:08;20.30;99.90
25450;DHT22;13371;52.080;5.624;2023-07-29T05:07:34;20.40;99.70
25450;DHT22;13371;52.080;5.624;2023-07-29T05:10:00;20.50;99.60
25450;DHT22;13371;52.080;5.624;2023-07-29T05:12:25;20.50;99.80
25450;DHT22;13371;52.080;5.624;2023-07-29T05:14:51;20.50;99.40
25450;DHT22;13371;52.080;5.624;2023-07-29T05:17:17;20.50;99.70
25450;DHT22;13371;52.080;5.624;2023-07-29T05:19:42;20.30;99.70
25450;DHT22;13371;52.080;5.624;2023-07-29T05:22:09;20.00;99.90
25450;DHT22;13371;52.080;5.624;2023-07-29T05:24:35;20.10;99.90
25450;DHT22;13371;52.080;5.624;2023-07-29T05:27:01;20.10;99.90
25450;DHT22;13371;52.080;5.624;2023-07-29T05:29:26;20.20;99.90
25450;DHT22;13371;52.080;5.624;2023-07-29T05:31:52;20.10;99.90
25450;DHT22;13371;52.080;5.624;2023-07-29T05:34:18;20.10;99.90
25450;DHT22;13371;52.080;5.624;2023-07-29T05:36:44;20.10;99.90
25450;DHT22;13371;52.080;5.624;2023-07-29T05:39:09;20.00;99.90
25450;DHT22;13371;52.080;5.624;2023-07-29T05:41:35;20.20;99.90
25450;DHT22;13371;52.080;5.624;2023-07-29T05:44:01;20.20;99.90
25450;DHT22;13371;52.080;5.624;2023-07-29T05:46:26;19.90;99.90
25450;DHT22;13371;52.080;5.624;2023-07-29T05:48:52;19.90;99.90
25450;DHT22;13371;52.080;5.624;2023-07-29T05:51:17;20.00;99.90
25450;DHT22;13371;52.080;5.624;2023-07-29T05:53:43;20.20;99.90
25450;DHT22;13371;52.080;5.624;2023-07-29T05:56:09;20.30;99.90
25450;DHT22;13371;52.080;5.624;2023-07-29T05:58:35;20.60;99.90
25450;DHT22;13371;52.080;5.624;2023-07-29T06:01:01;20.40;99.90
25450;DHT22;13371;52.080;5.624;2023-07-29T06:03:26;20.50;99.90
25450;DHT22;13371;52.080;5.624;2023-07-29T06:05:52;20.30;99.90
25450;DHT22;13371;52.080;5.624;2023-07-29T06:08:18;20.20;99.90
25450;DHT22;13371;52.080;5.624;2023-07-29T06:10:43;20.10;99.90
25450;DHT22;13371;52.080;5.624;2023-07-29T06:13:09;20.20;99.90
25450;DHT22;13371;52.080;5.624;2023-07-29T06:15:34;20.30;99.90
25450;DHT22;13371;52.080;5.624;2023-07-29T06:18:00;20.60;99.90
25450;DHT22;13371;52.080;5.624;2023-07-29T06:20:26;20.50;99.90
25450;DHT22;13371;52.080;5.624;2023-07-29T06:22:51;20.50;99.90
25450;DHT22;13371;52.080;5.624;2023-07-29T06:25:17;20.50;99.90
25450;DHT22;13371;52.080;5.624;2023-07-29T06:27:42;20.50;99.90
25450;DHT22;13371;52.080;5.624;2023-07-29T06:30:08;20.40;99.90
25450;DHT22;13371;52.080;5.624;2023-07-29T06:32:34;20.50;99.90
25450;DHT22;13371;52.080;5.624;2023-07-29T06:35:00;20.80;99.90
25450;DHT22;13371;52.080;5.624;2023-07-29T06:37:26;21.00;99.90
25450;DHT22;13371;52.080;5.624;2023-07-29T06:39:51;21.00;99.90
25450;DHT22;13371;52.080;5.624;2023-07-29T06:42:17;21.00;99.90
25450;DHT22;13371;52.080;5.624;2023-07-29T06:44:42;21.20;99.90
25450;DHT22;13371;52.080;5.624;2023-07-29T06:47:08;21.40;99.60
25450;DHT22;13371;52.080;5.624;2023-07-29T06:49:34;21.30;99.40
25450;DHT22;13371;52.080;5.624;2023-07-29T06:52:00;21.10;99.60
25450;DHT22;13371;52.080;5.624;2023-07-29T06:54:26;21.10;99.90
25450;DHT22;13371;52.080;5.624;2023-07-29T06:56:52;21.10;99.90
25450;DHT22;13371;52.080;5.624;2023-07-29T06:59:18;20.90;99.90
25450;DHT22;13371;52.080;5.624;2023-07-29T07:01:44;20.90;99.90
25450;DHT22;13371;52.080;5.624;2023-07-29T07:04:09;20.90;99.90
25450;DHT22;13371;52.080;5.624;2023-07-29T07:06:35;20.80;99.90
25450;DHT22;13371;52.080;5.624;2023-07-29T07:09:00;20.90;99.90
25450;DHT22;13371;52.080;5.624;2023-07-29T07:11:26;21.00;99.90
25450;DHT22;13371;52.080;5.624;2023-07-29T07:13:51;21.10;99.90
25450;DHT22;13371;52.080;5.624;2023-07-29T07:16:17;21.30;99.90
25450;DHT22;13371;52.080;5.624;2023-07-29T07:18:43;21.50;99.70
25450;DHT22;13371;52.080;5.624;2023-07-29T07:21:09;21.80;99.50
25450;DHT22;13371;52.080;5.624;2023-07-29T07:23:34;21.60;99.40
25450;DHT22;13371;52.080;5.624;2023-07-29T07:26:00;21.60;99.20
25450;DHT22;13371;52.080;5.624;2023-07-29T07:28:25;21.60;99.20
25450;DHT22;13371;52.080;5.624;2023-07-29T07:30:51;21.80;99.10
25450;DHT22;13371;52.080;5.624;2023-07-29T07:33:17;21.80;99.30
25450;DHT22;13371;52.080;5.624;2023-07-29T07:35:42;21.50;99.10
25450;DHT22;13371;52.080;5.624;2023-07-29T07:38:08;21.50;99.60
25450;DHT22;13371;52.080;5.624;2023-07-29T07:40:35;21.20;99.90
25450;DHT22;13371;52.080;5.624;2023-07-29T07:43:01;21.40;99.80
25450;DHT22;13371;52.080;5.624;2023-07-29T07:45:27;21.50;99.70
25450;DHT22;13371;52.080;5.624;2023-07-29T07:47:53;21.40;99.90
25450;DHT22;13371;52.080;5.624;2023-07-29T07:50:19;21.60;99.90
25450;DHT22;13371;52.080;5.624;2023-07-29T07:52:45;21.30;99.90
25450;DHT22;13371;52.080;5.624;2023-07-29T07:55:10;21.30;99.90
25450;DHT22;13371;52.080;5.624;2023-07-29T07:57:36;21.10;99.90
25450;DHT22;13371;52.080;5.624;2023-07-29T08:00:02;21.30;99.90
25450;DHT22;13371;52.080;5.624;2023-07-29T08:02:29;21.60;99.90
25450;DHT22;13371;52.080;5.624;2023-07-29T08:04:55;22.00;99.40
25450;DHT22;13371;52.080;5.624;2023-07-29T08:07:21;22.10;99.10
25450;DHT22;13371;52.080;5.624;2023-07-29T08:09:46;22.10;99.10
25450;DHT22;13371;52.080;5.624;2023-07-29T08:12:12;22.10;98.80
25450;DHT22;13371;52.080;5.624;2023-07-29T08:14:38;22.00;98.90
25450;DHT22;13371;52.080;5.624;2023-07-29T08:17:03;22.00;99.10
25450;DHT22;13371;52.080;5.624;2023-07-29T08:19:29;22.10;99.30
25450;DHT22;13371;52.080;5.624;2023-07-29T08:21:55;22.10;99.00
25450;DHT22;13371;52.080;5.624;2023-07-29T08:24:20;21.90;98.90
25450;DHT22;13371;52.080;5.624;2023-07-29T08:26:46;22.10;99.20
25450;DHT22;13371;52.080;5.624;2023-07-29T08:29:11;22.10;99.40
25450;DHT22;13371;52.080;5.624;2023-07-29T08:31:37;22.20;98.90
25450;DHT22;13371;52.080;5.624;2023-07-29T08:34:03;22.20;98.90
25450;DHT22;13371;52.080;5.624;2023-07-29T08:36:28;22.20;99.10
25450;DHT22;13371;52.080;5.624;2023-07-29T08:38:54;22.40;98.70
25450;DHT22;13371;52.080;5.624;2023-07-29T08:41:25;22.60;99.50
25450;DHT22;13371;52.080;5.624;2023-07-29T08:44:11;22.80;98.30
25450;DHT22;13371;52.080;5.624;2023-07-29T08:46:38;23.10;98.20
25450;DHT22;13371;52.080;5.624;2023-07-29T08:49:05;23.30;97.50
25450;DHT22;13371;52.080;5.624;2023-07-29T08:51:31;23.30;97.40
25450;DHT22;13371;52.080;5.624;2023-07-29T08:53:59;23.30;97.20
25450;DHT22;13371;52.080;5.624;2023-07-29T08:56:25;23.20;96.90
25450;DHT22;13371;52.080;5.624;2023-07-29T08:58:51;23.10;96.90
25450;DHT22;13371;52.080;5.624;2023-07-29T09:01:17;23.20;96.30
25450;DHT22;13371;52.080;5.624;2023-07-29T09:03:42;23.30;96.00
25450;DHT22;13371;52.080;5.624;2023-07-29T09:06:08;23.10;96.10
25450;DHT22;13371;52.080;5.624;2023-07-29T09:08:34;23.00;96.30
25450;DHT22;13371;52.080;5.624;2023-07-29T09:11:00;22.80;96.00
25450;DHT22;13371;52.080;5.624;2023-07-29T09:13:26;22.80;96.70
25450;DHT22;13371;52.080;5.624;2023-07-29T09:15:57;22.80;97.10
25450;DHT22;13371;52.080;5.624;2023-07-29T09:18:26;22.80;97.00
25450;DHT22;13371;52.080;5.624;2023-07-29T09:20:53;22.70;97.40
25450;DHT22;13371;52.080;5.624;2023-07-29T09:23:18;22.80;97.00
25450;DHT22;13371;52.080;5.624;2023-07-29T09:25:46;22.60;97.10
25450;DHT22;13371;52.080;5.624;2023-07-29T09:28:14;22.80;97.00
25450;DHT22;13371;52.080;5.624;2023-07-29T09:30:41;22.60;96.80
25450;DHT22;13371;52.080;5.624;2023-07-29T09:33:09;22.80;96.80
25450;DHT22;13371;52.080;5.624;2023-07-29T09:35:36;23.00;96.20
25450;DHT22;13371;52.080;5.624;2023-07-29T09:38:03;23.10;96.30
25450;DHT22;13371;52.080;5.624;2023-07-29T09:40:37;23.10;96.30
25450;DHT22;13371;52.080;5.624;2023-07-29T09:43:04;23.30;96.60
25450;DHT22;13371;52.080;5.624;2023-07-29T09:45:30;23.70;96.40
25450;DHT22;13371;52.080;5.624;2023-07-29T09:47:57;24.00;95.70
25450;DHT22;13371;52.080;5.624;2023-07-29T09:50:24;24.10;95.10
25450;DHT22;13371;52.080;5.624;2023-07-29T09:52:51;24.10;94.60
25450;DHT22;13371;52.080;5.624;2023-07-29T09:55:23;24.00;94.80
25450;DHT22;13371;52.080;5.624;2023-07-29T09:57:59;24.10;94.60
25450;DHT22;13371;52.080;5.624;2023-07-29T10:00:28;23.80;94.60
25450;DHT22;13371;52.080;5.624;2023-07-29T10:02:54;23.80;94.60
25450;DHT22;13371;52.080;5.624;2023-07-29T10:05:22;23.50;95.20
25450;DHT22;13371;52.080;5.624;2023-07-29T10:07:49;23.60;95.30
25450;DHT22;13371;52.080;5.624;2023-07-29T10:10:15;23.80;94.30
25450;DHT22;13371;52.080;5.624;2023-07-29T10:12:41;23.90;94.50
25450;DHT22;13371;52.080;5.624;2023-07-29T10:15:08;24.20;94.20
25450;DHT22;13371;52.080;5.624;2023-07-29T10:17:35;24.40;93.90
25450;DHT22;13371;52.080;5.624;2023-07-29T10:20:03;24.30;94.30
25450;DHT22;13371;52.080;5.624;2023-07-29T10:22:40;24.40;94.30
25450;DHT22;13371;52.080;5.624;2023-07-29T10:25:15;24.20;93.20
25450;DHT22;13371;52.080;5.624;2023-07-29T10:28:07;24.40;93.30
25450;DHT22;13371;52.080;5.624;2023-07-29T10:30:34;24.30;93.50
25450;DHT22;13371;52.080;5.624;2023-07-29T10:33:04;24.40;93.80
25450;DHT22;13371;52.080;5.624;2023-07-29T10:35:31;24.30;93.80
25450;DHT22;13371;52.080;5.624;2023-07-29T10:37:59;24.00;93.60
25450;DHT22;13371;52.080;5.624;2023-07-29T10:40:25;23.90;94.00
25450;DHT22;13371;52.080;5.624;2023-07-29T10:43:02;23.90;94.10
25450;DHT22;13371;52.080;5.624;2023-07-29T10:45:37;24.00;93.60
25450;DHT22;13371;52.080;5.624;2023-07-29T10:51:37;24.30;94.90
25450;DHT22;13371;52.080;5.624;2023-07-29T10:56:33;24.90;92.90
25450;DHT22;13371;52.080;5.624;2023-07-29T11:01:54;25.00;92.90
25450;DHT22;13371;52.080;5.624;2023-07-29T11:09:42;24.30;92.40
25450;DHT22;13371;52.080;5.624;2023-07-29T11:12:34;24.00;93.40
25450;DHT22;13371;52.080;5.624;2023-07-29T11:17:38;23.90;94.00
25450;DHT22;13371;52.080;5.624;2023-07-29T11:20:05;23.80;94.80
25450;DHT22;13371;52.080;5.624;2023-07-29T11:22:31;23.60;94.00
25450;DHT22;13371;52.080;5.624;2023-07-29T11:24:57;23.60;94.00
25450;DHT22;13371;52.080;5.624;2023-07-29T11:27:22;23.40;94.20
25450;DHT22;13371;52.080;5.624;2023-07-29T11:29:48;23.60;94.40
25450;DHT22;13371;52.080;5.624;2023-07-29T11:32:14;23.70;94.50
25450;DHT22;13371;52.080;5.624;2023-07-29T11:34:41;23.80;94.50
25450;DHT22;13371;52.080;5.624;2023-07-29T11:37:09;23.80;95.30
25450;DHT22;13371;52.080;5.624;2023-07-29T11:39:40;23.60;96.20
25450;DHT22;13371;52.080;5.624;2023-07-29T11:42:06;23.90;96.20
25450;DHT22;13371;52.080;5.624;2023-07-29T11:44:32;23.80;96.40
25450;DHT22;13371;52.080;5.624;2023-07-29T11:46:58;23.80;96.70
25450;DHT22;13371;52.080;5.624;2023-07-29T11:49:23;23.80;96.60
25450;DHT22;13371;52.080;5.624;2023-07-29T11:51:49;23.60;97.90
25450;DHT22;13371;52.080;5.624;2023-07-29T11:54:15;23.70;98.20
25450;DHT22;13371;52.080;5.624;2023-07-29T11:56:41;23.60;97.80
25450;DHT22;13371;52.080;5.624;2023-07-29T11:59:06;23.40;97.90
25450;DHT22;13371;52.080;5.624;2023-07-29T12:01:33;23.20;98.80
25450;DHT22;13371;52.080;5.624;2023-07-29T12:03:59;23.30;98.50
25450;DHT22;13371;52.080;5.624;2023-07-29T12:06:25;22.90;99.60
25450;DHT22;13371;52.080;5.624;2023-07-29T12:08:51;23.00;99.90
25450;DHT22;13371;52.080;5.624;2023-07-29T12:11:17;23.30;99.90
25450;DHT22;13371;52.080;5.624;2023-07-29T12:13:43;23.30;99.70
25450;DHT22;13371;52.080;5.624;2023-07-29T12:16:08;23.60;99.80
25450;DHT22;13371;52.080;5.624;2023-07-29T12:18:36;23.50;99.70
25450;DHT22;13371;52.080;5.624;2023-07-29T12:21:02;23.30;99.90
25450;DHT22;13371;52.080;5.624;2023-07-29T12:23:28;23.30;99.90
25450;DHT22;13371;52.080;5.624;2023-07-29T12:25:59;23.40;99.90
25450;DHT22;13371;52.080;5.624;2023-07-29T12:28:25;23.40;99.90
25450;DHT22;13371;52.080;5.624;2023-07-29T12:30:57;23.70;99.90
25450;DHT22;13371;52.080;5.624;2023-07-29T12:33:34;23.80;99.90
25450;DHT22;13371;52.080;5.624;2023-07-29T12:36:01;23.70;99.90
25450;DHT22;13371;52.080;5.624;2023-07-29T12:38:27;23.60;99.90
25450;DHT22;13371;52.080;5.624;2023-07-29T12:40:52;23.90;99.90
25450;DHT22;13371;52.080;5.624;2023-07-29T12:43:18;23.90;99.10
25450;DHT22;13371;52.080;5.624;2023-07-29T12:45:44;24.00;99.30
25450;DHT22;13371;52.080;5.624;2023-07-29T12:48:10;24.10;98.20
25450;DHT22;13371;52.080;5.624;2023-07-29T12:50:36;24.20;98.50
25450;DHT22;13371;52.080;5.624;2023-07-29T12:53:03;24.30;97.60
25450;DHT22;13371;52.080;5.624;2023-07-29T12:55:29;24.10;97.60
25450;DHT22;13371;52.080;5.624;2023-07-29T12:57:55;24.20;98.10
25450;DHT22;13371;52.080;5.624;2023-07-29T13:00:21;24.30;98.50
25450;DHT22;13371;52.080;5.624;2023-07-29T13:02:46;24.30;97.70
25450;DHT22;13371;52.080;5.624;2023-07-29T13:05:12;24.30;97.30
25450;DHT22;13371;52.080;5.624;2023-07-29T13:07:41;23.90;97.10
25450;DHT22;13371;52.080;5.624;2023-07-29T13:10:09;23.90;97.40
25450;DHT22;13371;52.080;5.624;2023-07-29T13:12:34;24.20;97.40
25450;DHT22;13371;52.080;5.624;2023-07-29T13:15:00;24.10;97.80
25450;DHT22;13371;52.080;5.624;2023-07-29T13:17:26;24.20;96.90
25450;DHT22;13371;52.080;5.624;2023-07-29T13:19:51;24.00;96.90
25450;DHT22;13371;52.080;5.624;2023-07-29T13:22:17;24.30;97.10
25450;DHT22;13371;52.080;5.624;2023-07-29T13:24:43;24.30;96.70
25450;DHT22;13371;52.080;5.624;2023-07-29T13:27:08;23.90;96.60
25450;DHT22;13371;52.080;5.624;2023-07-29T13:29:34;23.80;96.70
25450;DHT22;13371;52.080;5.624;2023-07-29T13:32:00;23.90;96.90
25450;DHT22;13371;52.080;5.624;2023-07-29T13:34:25;23.60;96.60
25450;DHT22;13371;52.080;5.624;2023-07-29T13:36:51;23.40;97.50
25450;DHT22;13371;52.080;5.624;2023-07-29T13:39:16;23.40;97.70
25450;DHT22;13371;52.080;5.624;2023-07-29T13:41:42;23.30;98.10
25450;DHT22;13371;52.080;5.624;2023-07-29T13:44:07;23.10;98.90
25450;DHT22;13371;52.080;5.624;2023-07-29T13:46:33;23.10;99.90
25450;DHT22;13371;52.080;5.624;2023-07-29T13:48:58;23.40;99.90
25450;DHT22;13371;52.080;5.624;2023-07-29T13:51:24;23.40;99.60
25450;DHT22;13371;52.080;5.624;2023-07-29T13:53:50;23.60;99.50
25450;DHT22;13371;52.080;5.624;2023-07-29T13:56:15;23.60;99.00
25450;DHT22;13371;52.080;5.624;2023-07-29T13:58:41;23.50;98.80
25450;DHT22;13371;52.080;5.624;2023-07-29T14:01:06;23.60;98.70
25450;DHT22;13371;52.080;5.624;2023-07-29T14:03:32;23.50;98.70
25450;DHT22;13371;52.080;5.624;2023-07-29T14:05:58;23.80;98.50
25450;DHT22;13371;52.080;5.624;2023-07-29T14:08:23;24.00;98.50
25450;DHT22;13371;52.080;5.624;2023-07-29T14:10:49;24.00;97.60
25450;DHT22;13371;52.080;5.624;2023-07-29T14:13:15;24.20;97.50
25450;DHT22;13371;52.080;5.624;2023-07-29T14:15:41;24.40;98.00
25450;DHT22;13371;52.080;5.624;2023-07-29T14:18:06;24.40;97.00
25450;DHT22;13371;52.080;5.624;2023-07-29T14:20:33;24.50;95.80
25450;DHT22;13371;52.080;5.624;2023-07-29T14:22:59;24.40;96.10
25450;DHT22;13371;52.080;5.624;2023-07-29T14:25:24;24.30;96.10
25450;DHT22;13371;52.080;5.624;2023-07-29T14:27:50;24.60;95.70
25450;DHT22;13371;52.080;5.624;2023-07-29T14:30:16;24.60;96.10
25450;DHT22;13371;52.080;5.624;2023-07-29T14:32:41;24.70;96.00
25450;DHT22;13371;52.080;5.624;2023-07-29T14:35:07;25.10;96.70
25450;DHT22;13371;52.080;5.624;2023-07-29T14:37:34;25.40;95.80
25450;DHT22;13371;52.080;5.624;2023-07-29T14:40:00;25.80;95.10
25450;DHT22;13371;52.080;5.624;2023-07-29T14:42:26;26.00;94.80
25450;DHT22;13371;52.080;5.624;2023-07-29T14:44:52;25.90;94.20
25450;DHT22;13371;52.080;5.624;2023-07-29T14:47:18;25.60;94.40
25450;DHT22;13371;52.080;5.624;2023-07-29T14:49:44;25.60;93.90
25450;DHT22;13371;52.080;5.624;2023-07-29T14:52:10;25.60;93.40
25450;DHT22;13371;52.080;5.624;2023-07-29T14:54:36;25.50;93.50
25450;DHT22;13371;52.080;5.624;2023-07-29T14:57:02;25.40;93.00
25450;DHT22;13371;52.080;5.624;2023-07-29T14:59:28;25.60;92.80
25450;DHT22;13371;52.080;5.624;2023-07-29T15:01:53;25.70;91.90
25450;DHT22;13371;52.080;5.624;2023-07-29T15:04:19;25.70;92.50
25450;DHT22;13371;52.080;5.624;2023-07-29T15:06:44;25.70;92.10
25450;DHT22;13371;52.080;5.624;2023-07-29T15:09:11;25.80;91.70
25450;DHT22;13371;52.080;5.624;2023-07-29T15:11:36;26.20;91.20
25450;DHT22;13371;52.080;5.624;2023-07-29T15:14:02;26.00;91.10
25450;DHT22;13371;52.080;5.624;2023-07-29T15:16:31;26.10;90.90
25450;DHT22;13371;52.080;5.624;2023-07-29T15:18:57;26.00;90.30
25450;DHT22;13371;52.080;5.624;2023-07-29T15:21:23;25.70;90.40
25450;DHT22;13371;52.080;5.624;2023-07-29T15:23:49;25.60;90.70
25450;DHT22;13371;52.080;5.624;2023-07-29T15:26:14;25.30;90.60
25450;DHT22;13371;52.080;5.624;2023-07-29T15:28:40;25.30;91.30
25450;DHT22;13371;52.080;5.624;2023-07-29T15:31:05;25.50;91.30
25450;DHT22;13371;52.080;5.624;2023-07-29T15:33:31;25.60;91.00
25450;DHT22;13371;52.080;5.624;2023-07-29T15:35:59;25.80;91.20
25450;DHT22;13371;52.080;5.624;2023-07-29T15:38:25;25.80;89.60
25450;DHT22;13371;52.080;5.624;2023-07-29T15:40:51;25.70;90.00
25450;DHT22;13371;52.080;5.624;2023-07-29T15:43:17;25.50;90.20
25450;DHT22;13371;52.080;5.624;2023-07-29T15:45:43;25.60;90.60